PATK

Details ICAO PATK (TKA)
Name TALKEETNA
Region USA (Alaska)
Timezone America/Anchorage (UTC-9.0)
Plans Departing 13
Arriving 21
Stats Elevation 358 ft / 109 m (AMSL)
Location 62.320512° -150.093685°
Runways 1
Magnetic Variation 16.355° E
Sunrise 2017-12-14 19:23:27 UTC / 2017-12-14 10:23:27 Local
Sunset 2017-12-15 00:29:51 UTC / 2017-12-14 15:29:51 Local
Advertisement - Login to hide

Runways

ID Width Length Bearing (true) Bearing (mag) Surface Threshold Offset Overrun Length
18 75 ft / 23 m 3,503 ft / 1,068 m 207.01° 190.65° Asphalt 0 ft / 0 m 0 ft / 0 m
36 75 ft / 23 m 3,503 ft / 1,068 m 27.01° 10.65° Asphalt 0 ft / 0 m 0 ft / 0 m

Map

Weather


0- 5 10 15 20 25 30 35+ Temperature / ° C

Clouds and Precipitation
Forecast for 2017-12-15 06:00 UTC. Updated 2 hours ago

Ground ~20,000 ft ~40,000 ft Winds

METAR

PATK 150653Z AUTO 00000KT 5SM -SN BR OVC007 M02/M03 A2956 RMK AO2 SLP016 P0000 T10171028 TSNO $

TAF

TAF AMD PATK 150602Z 1506/1606 00000KT 6SM -SN OVC035 TEMPO 1506/1510 2SM -SN BR BKN009 FM151400 01006KT P6SM BKN040

Frequencies

Recorded 135.20 MHz ASOS
Unicom 123.00 MHz UNICOM
Unicom 123.60 MHz CTAF
Approach 125.55 MHz APP-DEP Anchorage
Warning: Do not use this data for real-world aviation or navigation. No guarantee of current accuracy is given.